sensor_id;sensor_type;location;lat;lon;timestamp;P1;durP1;ratioP1;P2;durP2;ratioP2
18302;SDS011;9277;37.980;23.748;2023-06-10T00:01:14;7.45;;;4.47;;
18302;SDS011;9277;37.980;23.748;2023-06-10T00:03:41;9.75;;;4.85;;
18302;SDS011;9277;37.980;23.748;2023-06-10T00:06:08;6.50;;;4.47;;
18302;SDS011;9277;37.980;23.748;2023-06-10T00:08:37;7.03;;;4.70;;
18302;SDS011;9277;37.980;23.748;2023-06-10T00:11:05;7.97;;;4.63;;
18302;SDS011;9277;37.980;23.748;2023-06-10T00:13:31;10.10;;;4.97;;
18302;SDS011;9277;37.980;23.748;2023-06-10T00:15:58;9.63;;;5.22;;
18302;SDS011;9277;37.980;23.748;2023-06-10T00:18:25;10.35;;;5.00;;
18302;SDS011;9277;37.980;23.748;2023-06-10T00:20:52;8.90;;;5.13;;
18302;SDS011;9277;37.980;23.748;2023-06-10T00:23:20;9.80;;;4.53;;
18302;SDS011;9277;37.980;23.748;2023-06-10T00:25:49;8.50;;;5.13;;
18302;SDS011;9277;37.980;23.748;2023-06-10T00:28:15;6.63;;;4.90;;
18302;SDS011;9277;37.980;23.748;2023-06-10T00:30:42;9.13;;;4.80;;
18302;SDS011;9277;37.980;23.748;2023-06-10T00:33:09;11.02;;;5.00;;
18302;SDS011;9277;37.980;23.748;2023-06-10T00:35:36;11.13;;;5.03;;
18302;SDS011;9277;37.980;23.748;2023-06-10T00:38:02;10.60;;;5.22;;
18302;SDS011;9277;37.980;23.748;2023-06-10T00:40:29;8.10;;;5.28;;
18302;SDS011;9277;37.980;23.748;2023-06-10T00:42:57;11.18;;;6.30;;
18302;SDS011;9277;37.980;23.748;2023-06-10T00:45:24;10.77;;;5.25;;
18302;SDS011;9277;37.980;23.748;2023-06-10T00:47:51;10.23;;;5.13;;
18302;SDS011;9277;37.980;23.748;2023-06-10T00:50:18;10.27;;;5.57;;
18302;SDS011;9277;37.980;23.748;2023-06-10T00:52:44;8.15;;;4.72;;
18302;SDS011;9277;37.980;23.748;2023-06-10T00:55:13;7.97;;;4.97;;
18302;SDS011;9277;37.980;23.748;2023-06-10T00:57:40;7.88;;;4.97;;
18302;SDS011;9277;37.980;23.748;2023-06-10T01:00:11;7.78;;;5.05;;
18302;SDS011;9277;37.980;23.748;2023-06-10T01:02:38;11.23;;;5.70;;
18302;SDS011;9277;37.980;23.748;2023-06-10T01:05:05;12.98;;;5.65;;
18302;SDS011;9277;37.980;23.748;2023-06-10T01:07:33;11.60;;;5.45;;
18302;SDS011;9277;37.980;23.748;2023-06-10T01:10:04;11.45;;;5.53;;
18302;SDS011;9277;37.980;23.748;2023-06-10T01:12:33;7.57;;;4.97;;
18302;SDS011;9277;37.980;23.748;2023-06-10T01:15:01;9.63;;;5.43;;
18302;SDS011;9277;37.980;23.748;2023-06-10T01:17:30;13.98;;;5.25;;
18302;SDS011;9277;37.980;23.748;2023-06-10T01:19:57;13.15;;;5.80;;
18302;SDS011;9277;37.980;23.748;2023-06-10T01:22:26;10.50;;;5.82;;
18302;SDS011;9277;37.980;23.748;2023-06-10T01:24:54;13.35;;;4.95;;
18302;SDS011;9277;37.980;23.748;2023-06-10T01:27:23;8.10;;;4.88;;
18302;SDS011;9277;37.980;23.748;2023-06-10T01:29:54;10.35;;;4.78;;
18302;SDS011;9277;37.980;23.748;2023-06-10T01:32:26;8.93;;;4.80;;
18302;SDS011;9277;37.980;23.748;2023-06-10T01:34:54;8.82;;;4.97;;
18302;SDS011;9277;37.980;23.748;2023-06-10T01:37:21;9.90;;;4.15;;
18302;SDS011;9277;37.980;23.748;2023-06-10T01:39:52;7.82;;;4.70;;
18302;SDS011;9277;37.980;23.748;2023-06-10T01:42:21;7.85;;;4.35;;
18302;SDS011;9277;37.980;23.748;2023-06-10T01:44:47;5.97;;;3.83;;
18302;SDS011;9277;37.980;23.748;2023-06-10T01:47:14;7.45;;;4.47;;
18302;SDS011;9277;37.980;23.748;2023-06-10T01:49:41;6.13;;;4.38;;
18302;SDS011;9277;37.980;23.748;2023-06-10T01:52:08;8.40;;;4.22;;
18302;SDS011;9277;37.980;23.748;2023-06-10T01:54:35;5.78;;;3.35;;
18302;SDS011;9277;37.980;23.748;2023-06-10T01:57:03;4.03;;;3.17;;
18302;SDS011;9277;37.980;23.748;2023-06-10T01:59:31;6.05;;;3.55;;
18302;SDS011;9277;37.980;23.748;2023-06-10T02:01:58;6.32;;;3.28;;
18302;SDS011;9277;37.980;23.748;2023-06-10T02:04:24;5.78;;;3.28;;
18302;SDS011;9277;37.980;23.748;2023-06-10T02:06:51;4.70;;;3.13;;
18302;SDS011;9277;37.980;23.748;2023-06-10T02:09:18;5.25;;;3.47;;
18302;SDS011;9277;37.980;23.748;2023-06-10T02:11:45;5.40;;;3.60;;
18302;SDS011;9277;37.980;23.748;2023-06-10T02:14:13;8.15;;;3.50;;
18302;SDS011;9277;37.980;23.748;2023-06-10T02:16:40;4.15;;;3.30;;
18302;SDS011;9277;37.980;23.748;2023-06-10T02:19:11;6.78;;;3.75;;
18302;SDS011;9277;37.980;23.748;2023-06-10T02:21:38;6.70;;;2.95;;
18302;SDS011;9277;37.980;23.748;2023-06-10T02:24:05;4.75;;;3.25;;
18302;SDS011;9277;37.980;23.748;2023-06-10T02:26:32;5.28;;;3.35;;
18302;SDS011;9277;37.980;23.748;2023-06-10T02:28:59;6.22;;;3.80;;
18302;SDS011;9277;37.980;23.748;2023-06-10T02:31:27;6.18;;;3.72;;
18302;SDS011;9277;37.980;23.748;2023-06-10T02:33:54;5.82;;;3.30;;
18302;SDS011;9277;37.980;23.748;2023-06-10T02:36:20;9.10;;;3.92;;
18302;SDS011;9277;37.980;23.748;2023-06-10T02:38:49;6.43;;;3.63;;
18302;SDS011;9277;37.980;23.748;2023-06-10T02:41:16;4.68;;;3.78;;
18302;SDS011;9277;37.980;23.748;2023-06-10T02:43:42;5.53;;;3.72;;
18302;SDS011;9277;37.980;23.748;2023-06-10T02:46:09;6.10;;;3.83;;
18302;SDS011;9277;37.980;23.748;2023-06-10T02:48:41;3.78;;;3.30;;
18302;SDS011;9277;37.980;23.748;2023-06-10T02:51:09;4.15;;;3.50;;
18302;SDS011;9277;37.980;23.748;2023-06-10T02:53:36;6.28;;;4.00;;
18302;SDS011;9277;37.980;23.748;2023-06-10T02:56:03;6.68;;;3.40;;
18302;SDS011;9277;37.980;23.748;2023-06-10T02:58:29;4.78;;;3.70;;
18302;SDS011;9277;37.980;23.748;2023-06-10T03:00:56;7.00;;;3.78;;
18302;SDS011;9277;37.980;23.748;2023-06-10T03:03:23;8.07;;;3.47;;
18302;SDS011;9277;37.980;23.748;2023-06-10T03:05:52;7.55;;;4.10;;
18302;SDS011;9277;37.980;23.748;2023-06-10T03:08:19;5.20;;;4.00;;
18302;SDS011;9277;37.980;23.748;2023-06-10T03:10:47;4.57;;;3.67;;
18302;SDS011;9277;37.980;23.748;2023-06-10T03:13:13;4.97;;;3.55;;
18302;SDS011;9277;37.980;23.748;2023-06-10T03:15:40;7.72;;;3.53;;
18302;SDS011;9277;37.980;23.748;2023-06-10T03:18:07;4.78;;;3.25;;
18302;SDS011;9277;37.980;23.748;2023-06-10T03:20:34;6.18;;;3.67;;
18302;SDS011;9277;37.980;23.748;2023-06-10T03:23:05;8.27;;;4.13;;
18302;SDS011;9277;37.980;23.748;2023-06-10T03:25:32;8.10;;;4.22;;
18302;SDS011;9277;37.980;23.748;2023-06-10T03:27:59;5.32;;;3.88;;
18302;SDS011;9277;37.980;23.748;2023-06-10T03:30:26;7.53;;;3.80;;
18302;SDS011;9277;37.980;23.748;2023-06-10T03:32:53;5.25;;;3.53;;
18302;SDS011;9277;37.980;23.748;2023-06-10T03:35:20;6.97;;;4.30;;
18302;SDS011;9277;37.980;23.748;2023-06-10T03:37:47;5.75;;;3.65;;
18302;SDS011;9277;37.980;23.748;2023-06-10T03:40:16;7.15;;;4.10;;
18302;SDS011;9277;37.980;23.748;2023-06-10T03:42:42;4.15;;;3.63;;
18302;SDS011;9277;37.980;23.748;2023-06-10T03:45:10;8.85;;;4.00;;
18302;SDS011;9277;37.980;23.748;2023-06-10T03:47:37;9.90;;;4.68;;
18302;SDS011;9277;37.980;23.748;2023-06-10T03:50:06;7.18;;;4.60;;
18302;SDS011;9277;37.980;23.748;2023-06-10T03:52:33;8.00;;;4.57;;
18302;SDS011;9277;37.980;23.748;2023-06-10T03:54:59;5.80;;;4.00;;
18302;SDS011;9277;37.980;23.748;2023-06-10T03:57:28;7.63;;;4.50;;
18302;SDS011;9277;37.980;23.748;2023-06-10T03:59:54;7.40;;;4.25;;
18302;SDS011;9277;37.980;23.748;2023-06-10T04:02:21;11.10;;;4.78;;
18302;SDS011;9277;37.980;23.748;2023-06-10T04:04:48;8.82;;;4.80;;
18302;SDS011;9277;37.980;23.748;2023-06-10T04:07:16;9.75;;;5.13;;
18302;SDS011;9277;37.980;23.748;2023-06-10T04:09:44;7.72;;;4.28;;
18302;SDS011;9277;37.980;23.748;2023-06-10T04:12:11;7.88;;;4.57;;
18302;SDS011;9277;37.980;23.748;2023-06-10T04:14:41;9.02;;;4.43;;
18302;SDS011;9277;37.980;23.748;2023-06-10T04:17:08;11.30;;;5.60;;
18302;SDS011;9277;37.980;23.748;2023-06-10T04:19:35;12.60;;;4.57;;
18302;SDS011;9277;37.980;23.748;2023-06-10T04:22:02;15.50;;;4.97;;
18302;SDS011;9277;37.980;23.748;2023-06-10T04:24:30;12.70;;;4.35;;
18302;SDS011;9277;37.980;23.748;2023-06-10T04:26:57;13.15;;;5.28;;
18302;SDS011;9277;37.980;23.748;2023-06-10T04:29:23;7.63;;;4.18;;
18302;SDS011;9277;37.980;23.748;2023-06-10T04:31:51;11.82;;;5.07;;
18302;SDS011;9277;37.980;23.748;2023-06-10T04:34:18;12.63;;;5.45;;
18302;SDS011;9277;37.980;23.748;2023-06-10T04:36:45;11.25;;;5.20;;
18302;SDS011;9277;37.980;23.748;2023-06-10T04:39:12;12.50;;;4.60;;
18302;SDS011;9277;37.980;23.748;2023-06-10T04:41:39;12.50;;;4.88;;
18302;SDS011;9277;37.980;23.748;2023-06-10T04:44:05;10.57;;;5.20;;
18302;SDS011;9277;37.980;23.748;2023-06-10T04:46:32;10.90;;;4.30;;
18302;SDS011;9277;37.980;23.748;2023-06-10T04:49:01;9.18;;;4.78;;
18302;SDS011;9277;37.980;23.748;2023-06-10T04:51:28;4.82;;;4.38;;
18302;SDS011;9277;37.980;23.748;2023-06-10T04:53:54;8.48;;;4.55;;
18302;SDS011;9277;37.980;23.748;2023-06-10T04:56:21;8.20;;;5.07;;
18302;SDS011;9277;37.980;23.748;2023-06-10T04:58:49;10.45;;;4.70;;
18302;SDS011;9277;37.980;23.748;2023-06-10T05:01:15;7.32;;;4.32;;
18302;SDS011;9277;37.980;23.748;2023-06-10T05:03:42;10.85;;;5.32;;
18302;SDS011;9277;37.980;23.748;2023-06-10T05:06:10;11.00;;;4.90;;
18302;SDS011;9277;37.980;23.748;2023-06-10T05:08:37;5.20;;;3.88;;
18302;SDS011;9277;37.980;23.748;2023-06-10T05:11:03;8.38;;;4.60;;
18302;SDS011;9277;37.980;23.748;2023-06-10T05:13:31;8.85;;;4.78;;
18302;SDS011;9277;37.980;23.748;2023-06-10T05:15:58;11.25;;;5.20;;
18302;SDS011;9277;37.980;23.748;2023-06-10T05:18:25;11.70;;;4.53;;
18302;SDS011;9277;37.980;23.748;2023-06-10T05:20:51;12.50;;;6.20;;
18302;SDS011;9277;37.980;23.748;2023-06-10T05:23:20;11.73;;;5.10;;
18302;SDS011;9277;37.980;23.748;2023-06-10T05:25:47;12.50;;;6.38;;
18302;SDS011;9277;37.980;23.748;2023-06-10T05:28:13;12.77;;;6.88;;
18302;SDS011;9277;37.980;23.748;2023-06-10T05:30:40;16.00;;;7.63;;
18302;SDS011;9277;37.980;23.748;2023-06-10T05:33:07;19.15;;;5.72;;
18302;SDS011;9277;37.980;23.748;2023-06-10T05:35:34;12.05;;;5.68;;
18302;SDS011;9277;37.980;23.748;2023-06-10T05:38:00;13.25;;;6.88;;
18302;SDS011;9277;37.980;23.748;2023-06-10T05:40:29;10.00;;;4.97;;
18302;SDS011;9277;37.980;23.748;2023-06-10T05:42:55;13.23;;;6.05;;
18302;SDS011;9277;37.980;23.748;2023-06-10T05:45:22;15.77;;;7.70;;
18302;SDS011;9277;37.980;23.748;2023-06-10T05:47:49;9.57;;;5.70;;
18302;SDS011;9277;37.980;23.748;2023-06-10T05:50:16;11.93;;;5.28;;
18302;SDS011;9277;37.980;23.748;2023-06-10T05:52:42;11.00;;;5.70;;
18302;SDS011;9277;37.980;23.748;2023-06-10T05:55:09;13.10;;;5.93;;
18302;SDS011;9277;37.980;23.748;2023-06-10T05:57:38;9.13;;;5.40;;
18302;SDS011;9277;37.980;23.748;2023-06-10T06:00:05;10.30;;;5.28;;
18302;SDS011;9277;37.980;23.748;2023-06-10T06:02:32;9.80;;;5.28;;
18302;SDS011;9277;37.980;23.748;2023-06-10T06:04:59;12.00;;;5.82;;
18302;SDS011;9277;37.980;23.748;2023-06-10T06:07:26;7.93;;;4.97;;
18302;SDS011;9277;37.980;23.748;2023-06-10T06:09:53;7.65;;;4.25;;
18302;SDS011;9277;37.980;23.748;2023-06-10T06:12:20;9.23;;;4.60;;
18302;SDS011;9277;37.980;23.748;2023-06-10T06:14:48;13.32;;;5.10;;
18302;SDS011;9277;37.980;23.748;2023-06-10T06:17:15;7.43;;;3.95;;
18302;SDS011;9277;37.980;23.748;2023-06-10T06:19:42;7.10;;;4.20;;
18302;SDS011;9277;37.980;23.748;2023-06-10T06:22:08;9.68;;;4.15;;
18302;SDS011;9277;37.980;23.748;2023-06-10T06:24:35;6.35;;;3.70;;
18302;SDS011;9277;37.980;23.748;2023-06-10T06:27:02;11.90;;;4.70;;
18302;SDS011;9277;37.980;23.748;2023-06-10T06:29:29;8.02;;;4.18;;
18302;SDS011;9277;37.980;23.748;2023-06-10T06:31:57;8.82;;;4.35;;
18302;SDS011;9277;37.980;23.748;2023-06-10T06:34:24;7.32;;;3.72;;
18302;SDS011;9277;37.980;23.748;2023-06-10T06:36:51;12.25;;;4.07;;
18302;SDS011;9277;37.980;23.748;2023-06-10T06:39:17;7.40;;;3.85;;
18302;SDS011;9277;37.980;23.748;2023-06-10T06:41:44;9.60;;;4.50;;
18302;SDS011;9277;37.980;23.748;2023-06-10T06:44:11;10.45;;;4.65;;
18302;SDS011;9277;37.980;23.748;2023-06-10T06:46:38;5.22;;;3.60;;
18302;SDS011;9277;37.980;23.748;2023-06-10T06:49:06;6.10;;;3.65;;
18302;SDS011;9277;37.980;23.748;2023-06-10T06:51:33;7.75;;;3.97;;
18302;SDS011;9277;37.980;23.748;2023-06-10T06:54:00;8.63;;;4.00;;
18302;SDS011;9277;37.980;23.748;2023-06-10T06:56:27;8.23;;;3.72;;
18302;SDS011;9277;37.980;23.748;2023-06-10T06:58:54;6.15;;;3.88;;
18302;SDS011;9277;37.980;23.748;2023-06-10T07:01:20;4.72;;;3.55;;
18302;SDS011;9277;37.980;23.748;2023-06-10T07:03:47;4.82;;;3.95;;
18302;SDS011;9277;37.980;23.748;2023-06-10T07:06:15;5.35;;;4.10;;
18302;SDS011;9277;37.980;23.748;2023-06-10T07:08:42;6.63;;;4.10;;
18302;SDS011;9277;37.980;23.748;2023-06-10T07:11:09;8.50;;;4.07;;
18302;SDS011;9277;37.980;23.748;2023-06-10T07:13:35;6.45;;;3.50;;
18302;SDS011;9277;37.980;23.748;2023-06-10T07:16:02;7.07;;;4.47;;
18302;SDS011;9277;37.980;23.748;2023-06-10T07:18:29;5.30;;;3.80;;
18302;SDS011;9277;37.980;23.748;2023-06-10T07:20:56;6.75;;;3.83;;
18302;SDS011;9277;37.980;23.748;2023-06-10T07:23:24;5.63;;;4.07;;
18302;SDS011;9277;37.980;23.748;2023-06-10T07:25:50;5.68;;;3.92;;
18302;SDS011;9277;37.980;23.748;2023-06-10T07:28:17;6.28;;;4.47;;
18302;SDS011;9277;37.980;23.748;2023-06-10T07:30:44;12.82;;;4.35;;
18302;SDS011;9277;37.980;23.748;2023-06-10T07:33:11;7.68;;;4.25;;
18302;SDS011;9277;37.980;23.748;2023-06-10T07:35:37;7.53;;;4.20;;
18302;SDS011;9277;37.980;23.748;2023-06-10T07:38:04;9.13;;;5.10;;
18302;SDS011;9277;37.980;23.748;2023-06-10T07:40:32;11.50;;;4.80;;
18302;SDS011;9277;37.980;23.748;2023-06-10T07:42:59;7.45;;;4.28;;
18302;SDS011;9277;37.980;23.748;2023-06-10T07:45:26;7.63;;;4.68;;
18302;SDS011;9277;37.980;23.748;2023-06-10T07:47:53;9.15;;;3.72;;
18302;SDS011;9277;37.980;23.748;2023-06-10T07:50:20;9.57;;;4.55;;
18302;SDS011;9277;37.980;23.748;2023-06-10T07:52:47;7.28;;;4.57;;
18302;SDS011;9277;37.980;23.748;2023-06-10T07:55:13;7.63;;;4.28;;
18302;SDS011;9277;37.980;23.748;2023-06-10T07:57:41;6.13;;;4.20;;
18302;SDS011;9277;37.980;23.748;2023-06-10T08:00:08;10.23;;;4.43;;
18302;SDS011;9277;37.980;23.748;2023-06-10T08:02:35;10.68;;;5.05;;
18302;SDS011;9277;37.980;23.748;2023-06-10T08:05:03;8.82;;;4.93;;
18302;SDS011;9277;37.980;23.748;2023-06-10T08:07:29;7.20;;;4.10;;
18302;SDS011;9277;37.980;23.748;2023-06-10T08:09:57;7.72;;;4.43;;
18302;SDS011;9277;37.980;23.748;2023-06-10T08:12:23;10.15;;;4.03;;
18302;SDS011;9277;37.980;23.748;2023-06-10T08:14:51;8.55;;;4.40;;
18302;SDS011;9277;37.980;23.748;2023-06-10T08:17:19;9.20;;;5.00;;
18302;SDS011;9277;37.980;23.748;2023-06-10T08:19:45;14.25;;;5.35;;
18302;SDS011;9277;37.980;23.748;2023-06-10T08:22:12;5.93;;;4.28;;
18302;SDS011;9277;37.980;23.748;2023-06-10T08:24:40;7.20;;;4.25;;
18302;SDS011;9277;37.980;23.748;2023-06-10T08:27:06;8.82;;;4.72;;
18302;SDS011;9277;37.980;23.748;2023-06-10T08:29:33;10.50;;;4.70;;
18302;SDS011;9277;37.980;23.748;2023-06-10T08:32:01;6.50;;;4.10;;
18302;SDS011;9277;37.980;23.748;2023-06-10T08:34:28;7.80;;;4.43;;
18302;SDS011;9277;37.980;23.748;2023-06-10T08:36:55;8.95;;;4.40;;
18302;SDS011;9277;37.980;23.748;2023-06-10T08:39:22;11.07;;;4.35;;
18302;SDS011;9277;37.980;23.748;2023-06-10T08:41:51;8.77;;;4.40;;
18302;SDS011;9277;37.980;23.748;2023-06-10T08:44:22;9.38;;;4.10;;
18302;SDS011;9277;37.980;23.748;2023-06-10T08:46:51;9.52;;;4.00;;
18302;SDS011;9277;37.980;23.748;2023-06-10T08:49:19;13.70;;;5.07;;
18302;SDS011;9277;37.980;23.748;2023-06-10T08:51:50;9.00;;;3.95;;
18302;SDS011;9277;37.980;23.748;2023-06-10T08:54:17;8.43;;;4.32;;
18302;SDS011;9277;37.980;23.748;2023-06-10T08:56:48;9.50;;;4.28;;
18302;SDS011;9277;37.980;23.748;2023-06-10T08:59:15;4.75;;;3.85;;
18302;SDS011;9277;37.980;23.748;2023-06-10T09:01:42;11.48;;;4.80;;
18302;SDS011;9277;37.980;23.748;2023-06-10T09:04:09;5.40;;;4.53;;
18302;SDS011;9277;37.980;23.748;2023-06-10T09:06:38;16.70;;;5.10;;
18302;SDS011;9277;37.980;23.748;2023-06-10T09:09:05;11.88;;;5.35;;
18302;SDS011;9277;37.980;23.748;2023-06-10T09:11:32;8.15;;;4.93;;
18302;SDS011;9277;37.980;23.748;2023-06-10T09:13:59;11.18;;;4.35;;
18302;SDS011;9277;37.980;23.748;2023-06-10T09:16:25;5.20;;;3.90;;
18302;SDS011;9277;37.980;23.748;2023-06-10T09:18:53;8.65;;;4.57;;
18302;SDS011;9277;37.980;23.748;2023-06-10T09:21:20;10.18;;;4.43;;
18302;SDS011;9277;37.980;23.748;2023-06-10T09:23:49;6.22;;;4.28;;
18302;SDS011;9277;37.980;23.748;2023-06-10T09:26:15;5.95;;;4.30;;
18302;SDS011;9277;37.980;23.748;2023-06-10T09:28:42;8.68;;;4.45;;
18302;SDS011;9277;37.980;23.748;2023-06-10T09:31:09;6.68;;;4.05;;
18302;SDS011;9277;37.980;23.748;2023-06-10T09:33:36;7.88;;;4.70;;
18302;SDS011;9277;37.980;23.748;2023-06-10T09:36:03;6.20;;;4.03;;
18302;SDS011;9277;37.980;23.748;2023-06-10T09:38:30;8.13;;;3.90;;
18302;SDS011;9277;37.980;23.748;2023-06-10T09:40:59;10.63;;;4.70;;
18302;SDS011;9277;37.980;23.748;2023-06-10T09:43:38;8.48;;;4.32;;
18302;SDS011;9277;37.980;23.748;2023-06-10T09:46:05;5.32;;;4.35;;
18302;SDS011;9277;37.980;23.748;2023-06-10T09:48:34;6.72;;;4.20;;
18302;SDS011;9277;37.980;23.748;2023-06-10T09:51:00;8.95;;;4.38;;
18302;SDS011;9277;37.980;23.748;2023-06-10T09:53:27;8.38;;;4.70;;
18302;SDS011;9277;37.980;23.748;2023-06-10T09:55:56;6.80;;;4.57;;
18302;SDS011;9277;37.980;23.748;2023-06-10T09:58:34;15.68;;;5.28;;
18302;SDS011;9277;37.980;23.748;2023-06-10T10:01:04;7.70;;;4.53;;
18302;SDS011;9277;37.980;23.748;2023-06-10T10:03:31;9.68;;;4.53;;
18302;SDS011;9277;37.980;23.748;2023-06-10T10:05:57;7.55;;;3.95;;
18302;SDS011;9277;37.980;23.748;2023-06-10T10:08:24;10.20;;;4.82;;
18302;SDS011;9277;37.980;23.748;2023-06-10T10:10:51;7.68;;;4.13;;
18302;SDS011;9277;37.980;23.748;2023-06-10T10:13:18;6.72;;;4.32;;
18302;SDS011;9277;37.980;23.748;2023-06-10T10:15:46;5.05;;;3.58;;
18302;SDS011;9277;37.980;23.748;2023-06-10T10:18:14;7.93;;;4.05;;
18302;SDS011;9277;37.980;23.748;2023-06-10T10:20:45;8.95;;;3.92;;
18302;SDS011;9277;37.980;23.748;2023-06-10T10:23:13;6.60;;;4.03;;
18302;SDS011;9277;37.980;23.748;2023-06-10T10:25:40;7.60;;;4.15;;
18302;SDS011;9277;37.980;23.748;2023-06-10T10:28:09;5.50;;;4.25;;
18302;SDS011;9277;37.980;23.748;2023-06-10T10:30:37;9.77;;;4.35;;
18302;SDS011;9277;37.980;23.748;2023-06-10T10:33:08;11.50;;;4.60;;
18302;SDS011;9277;37.980;23.748;2023-06-10T10:35:36;6.68;;;4.32;;
18302;SDS011;9277;37.980;23.748;2023-06-10T10:38:04;8.57;;;4.20;;
18302;SDS011;9277;37.980;23.748;2023-06-10T10:40:31;5.53;;;3.78;;
18302;SDS011;9277;37.980;23.748;2023-06-10T10:42:59;9.60;;;4.10;;
18302;SDS011;9277;37.980;23.748;2023-06-10T10:45:27;6.93;;;4.25;;
18302;SDS011;9277;37.980;23.748;2023-06-10T10:47:54;9.35;;;3.88;;
18302;SDS011;9277;37.980;23.748;2023-06-10T10:50:24;8.93;;;4.50;;
18302;SDS011;9277;37.980;23.748;2023-06-10T10:52:52;6.25;;;3.97;;
18302;SDS011;9277;37.980;23.748;2023-06-10T10:55:19;4.97;;;3.65;;
18302;SDS011;9277;37.980;23.748;2023-06-10T10:57:53;7.32;;;3.97;;
18302;SDS011;9277;37.980;23.748;2023-06-10T11:00:24;6.20;;;4.60;;
18302;SDS011;9277;37.980;23.748;2023-06-10T11:02:51;6.30;;;4.43;;
18302;SDS011;9277;37.980;23.748;2023-06-10T11:05:20;8.30;;;4.35;;
18302;SDS011;9277;37.980;23.748;2023-06-10T11:07:58;7.70;;;4.55;;
18302;SDS011;9277;37.980;23.748;2023-06-10T11:10:29;5.63;;;3.75;;
18302;SDS011;9277;37.980;23.748;2023-06-10T11:12:56;8.57;;;4.78;;
18302;SDS011;9277;37.980;23.748;2023-06-10T11:15:23;14.20;;;3.92;;
18302;SDS011;9277;37.980;23.748;2023-06-10T11:18:06;8.98;;;4.45;;
18302;SDS011;9277;37.980;23.748;2023-06-10T11:20:45;7.38;;;4.68;;
18302;SDS011;9277;37.980;23.748;2023-06-10T11:23:48;6.63;;;4.32;;
18302;SDS011;9277;37.980;23.748;2023-06-10T11:26:17;8.25;;;3.88;;
18302;SDS011;9277;37.980;23.748;2023-06-10T11:29:02;6.03;;;3.88;;
18302;SDS011;9277;37.980;23.748;2023-06-10T11:31:29;9.10;;;3.78;;
18302;SDS011;9277;37.980;23.748;2023-06-10T11:33:57;8.07;;;4.25;;
18302;SDS011;9277;37.980;23.748;2023-06-10T11:36:24;8.93;;;3.78;;
18302;SDS011;9277;37.980;23.748;2023-06-10T11:38:55;6.93;;;4.18;;
18302;SDS011;9277;37.980;23.748;2023-06-10T11:41:23;7.00;;;3.80;;
18302;SDS011;9277;37.980;23.748;2023-06-10T11:43:50;9.30;;;4.85;;
18302;SDS011;9277;37.980;23.748;2023-06-10T11:46:17;7.82;;;4.55;;
18302;SDS011;9277;37.980;23.748;2023-06-10T11:48:48;7.97;;;4.05;;
18302;SDS011;9277;37.980;23.748;2023-06-10T11:51:14;6.32;;;4.20;;
18302;SDS011;9277;37.980;23.748;2023-06-10T11:53:43;8.05;;;4.45;;
18302;SDS011;9277;37.980;23.748;2023-06-10T11:56:11;7.32;;;4.30;;
18302;SDS011;9277;37.980;23.748;2023-06-10T11:58:38;6.97;;;4.43;;
18302;SDS011;9277;37.980;23.748;2023-06-10T12:01:07;7.03;;;4.22;;
18302;SDS011;9277;37.980;23.748;2023-06-10T12:03:35;6.95;;;4.05;;
18302;SDS011;9277;37.980;23.748;2023-06-10T12:06:03;10.02;;;4.47;;
18302;SDS011;9277;37.980;23.748;2023-06-10T12:08:30;7.40;;;4.20;;
18302;SDS011;9277;37.980;23.748;2023-06-10T12:10:57;6.68;;;4.30;;
18302;SDS011;9277;37.980;23.748;2023-06-10T12:13:26;5.45;;;4.20;;
18302;SDS011;9277;37.980;23.748;2023-06-10T12:15:53;6.40;;;4.18;;
18302;SDS011;9277;37.980;23.748;2023-06-10T12:18:20;5.10;;;3.67;;
18302;SDS011;9277;37.980;23.748;2023-06-10T12:20:47;5.45;;;4.13;;
18302;SDS011;9277;37.980;23.748;2023-06-10T12:23:15;5.97;;;4.40;;
18302;SDS011;9277;37.980;23.748;2023-06-10T12:25:49;7.78;;;4.60;;
18302;SDS011;9277;37.980;23.748;2023-06-10T12:28:16;7.15;;;4.18;;
18302;SDS011;9277;37.980;23.748;2023-06-10T12:30:45;6.03;;;4.03;;
18302;SDS011;9277;37.980;23.748;2023-06-10T12:33:15;6.32;;;3.47;;
18302;SDS011;9277;37.980;23.748;2023-06-10T12:35:46;6.80;;;3.80;;
18302;SDS011;9277;37.980;23.748;2023-06-10T12:38:14;5.03;;;3.63;;
18302;SDS011;9277;37.980;23.748;2023-06-10T12:40:41;9.20;;;3.80;;
18302;SDS011;9277;37.980;23.748;2023-06-10T12:43:08;6.25;;;3.38;;
18302;SDS011;9277;37.980;23.748;2023-06-10T12:45:36;6.93;;;4.07;;
18302;SDS011;9277;37.980;23.748;2023-06-10T12:48:06;6.22;;;3.42;;
18302;SDS011;9277;37.980;23.748;2023-06-10T12:50:34;6.35;;;4.03;;
18302;SDS011;9277;37.980;23.748;2023-06-10T12:53:01;11.52;;;4.88;;
18302;SDS011;9277;37.980;23.748;2023-06-10T12:55:27;7.05;;;3.85;;
18302;SDS011;9277;37.980;23.748;2023-06-10T12:57:54;6.07;;;3.72;;
18302;SDS011;9277;37.980;23.748;2023-06-10T13:00:22;6.60;;;3.78;;
18302;SDS011;9277;37.980;23.748;2023-06-10T13:02:51;4.25;;;3.70;;
18302;SDS011;9277;37.980;23.748;2023-06-10T13:05:19;4.93;;;3.85;;
18302;SDS011;9277;37.980;23.748;2023-06-10T13:07:46;5.22;;;3.63;;
18302;SDS011;9277;37.980;23.748;2023-06-10T13:10:13;4.65;;;3.50;;
18302;SDS011;9277;37.980;23.748;2023-06-10T13:12:41;5.78;;;4.18;;
18302;SDS011;9277;37.980;23.748;2023-06-10T13:15:08;4.80;;;3.78;;
18302;SDS011;9277;37.980;23.748;2023-06-10T13:17:35;4.47;;;3.30;;
18302;SDS011;9277;37.980;23.748;2023-06-10T13:20:02;5.20;;;3.67;;
18302;SDS011;9277;37.980;23.748;2023-06-10T13:22:31;6.78;;;4.00;;
18302;SDS011;9277;37.980;23.748;2023-06-10T13:24:58;5.32;;;3.72;;
18302;SDS011;9277;37.980;23.748;2023-06-10T13:27:25;4.75;;;3.88;;
18302;SDS011;9277;37.980;23.748;2023-06-10T13:29:52;6.60;;;4.05;;
18302;SDS011;9277;37.980;23.748;2023-06-10T13:32:19;4.28;;;3.40;;
18302;SDS011;9277;37.980;23.748;2023-06-10T13:34:45;8.57;;;3.85;;
18302;SDS011;9277;37.980;23.748;2023-06-10T13:37:12;11.75;;;3.88;;
18302;SDS011;9277;37.980;23.748;2023-06-10T13:39:40;10.13;;;3.58;;
18302;SDS011;9277;37.980;23.748;2023-06-10T13:42:07;3.95;;;3.28;;
18302;SDS011;9277;37.980;23.748;2023-06-10T13:44:34;5.65;;;3.15;;
18302;SDS011;9277;37.980;23.748;2023-06-10T13:47:01;4.57;;;3.60;;
18302;SDS011;9277;37.980;23.748;2023-06-10T13:49:28;5.80;;;3.30;;
18302;SDS011;9277;37.980;23.748;2023-06-10T13:51:54;4.15;;;3.22;;
18302;SDS011;9277;37.980;23.748;2023-06-10T13:54:21;9.80;;;5.10;;
18302;SDS011;9277;37.980;23.748;2023-06-10T13:56:49;6.70;;;4.15;;
18302;SDS011;9277;37.980;23.748;2023-06-10T13:59:16;8.75;;;5.03;;
18302;SDS011;9277;37.980;23.748;2023-06-10T14:01:45;6.97;;;4.53;;
18302;SDS011;9277;37.980;23.748;2023-06-10T14:04:11;6.82;;;4.18;;
18302;SDS011;9277;37.980;23.748;2023-06-10T14:06:38;7.82;;;4.00;;
18302;SDS011;9277;37.980;23.748;2023-06-10T14:09:05;6.35;;;4.07;;
18302;SDS011;9277;37.980;23.748;2023-06-10T14:11:31;4.25;;;3.17;;
18302;SDS011;9277;37.980;23.748;2023-06-10T14:14:00;5.28;;;3.58;;
18302;SDS011;9277;37.980;23.748;2023-06-10T14:16:26;4.55;;;3.53;;
18302;SDS011;9277;37.980;23.748;2023-06-10T14:18:53;4.38;;;2.97;;
18302;SDS011;9277;37.980;23.748;2023-06-10T14:21:20;7.00;;;3.35;;
18302;SDS011;9277;37.980;23.748;2023-06-10T14:23:47;5.13;;;3.40;;
18302;SDS011;9277;37.980;23.748;2023-06-10T14:26:16;5.88;;;3.30;;
18302;SDS011;9277;37.980;23.748;2023-06-10T14:28:43;4.90;;;3.13;;
18302;SDS011;9277;37.980;23.748;2023-06-10T14:31:11;7.38;;;3.60;;
18302;SDS011;9277;37.980;23.748;2023-06-10T14:33:38;4.25;;;2.92;;
18302;SDS011;9277;37.980;23.748;2023-06-10T14:36:07;6.00;;;2.90;;
18302;SDS011;9277;37.980;23.748;2023-06-10T14:38:34;3.15;;;2.83;;
18302;SDS011;9277;37.980;23.748;2023-06-10T14:41:00;5.18;;;3.20;;
18302;SDS011;9277;37.980;23.748;2023-06-10T14:43:27;5.40;;;3.17;;
18302;SDS011;9277;37.980;23.748;2023-06-10T14:45:54;3.92;;;3.08;;
18302;SDS011;9277;37.980;23.748;2023-06-10T14:48:23;4.00;;;3.00;;